Enter the Airport ICAO Code

Search by Airport or City

Current Weather

LEZG | Zaragoza Airport

Zaragoza, Aragon, Spain

Last Update 7 Minutes Ago

Sky with Few Clouds

Temperature of 23 ºC

Light to Moderate Winds from NorthWest

Temperature

23 ºC

Dew Point Temperature

08 ºC

Relative Humidity

38.39 %

Wind Direction

NorthWest (300º, Ranging from 270º to 350º)

Wind Velocity

15 km/h (08 kt)

Gusts

None

Visibility

Greater than 10 Kilometers

Sea Level Pressure

1022 hPa (Hectopascals)

Layers of Clouds

5% to 30% of Sky Covered with Towering Cumulus from 1524 mts (5000 ft) Above Ground Level.

METAR LEZG 211500Z 30008KT 270V350 9999 FEW050TCU 23/08 Q1022

Weather Forecast

LEZG | Zaragoza Airport

Zaragoza, Aragon, Spain

Forecast valid for the next 21 Hours

From now on it is expected:

Sky with Few Clouds

Moderate Winds from West

From now on it is expected 3 hours with intermittent periods of:

Light to Moderate Winds from NorthWest

In 9 hours it is expected the begining of 6 hours with intermittent periods of:

Rain

Maximum Temperature

24 ºC in -1 Hours

Minimum Temperature

13 ºC in 15 Hours

TAF LEZG 211100Z 2112/2212 29010KT 9999 FEW050 TX24/2114Z TN13/2206Z TEMPO 2112/2118 33008KT PROB30 TEMPO 2200/2206 RA BKN030